createdAt,value
2022-08-19T00:02:02.272Z,41.70
2022-08-19T00:04:31.496Z,41.60
2022-08-19T00:06:58.770Z,41.70
2022-08-19T00:09:26.321Z,41.80
2022-08-19T00:11:54.579Z,41.70
2022-08-19T00:14:22.268Z,41.80
2022-08-19T00:16:49.670Z,41.60
2022-08-19T00:19:17.111Z,41.50
2022-08-19T00:21:44.428Z,41.20
2022-08-19T00:24:12.238Z,41.20
2022-08-19T00:26:39.895Z,41.30
2022-08-19T00:29:08.078Z,41.00
2022-08-19T00:31:35.188Z,40.70
2022-08-19T00:34:02.183Z,40.60
2022-08-19T00:36:30.026Z,40.60
2022-08-19T00:38:57.420Z,40.60
2022-08-19T00:41:25.290Z,40.50
2022-08-19T00:44:04.460Z,40.10
2022-08-19T00:46:32.701Z,39.60
2022-08-19T00:49:00.324Z,39.50
2022-08-19T00:51:28.580Z,39.10
2022-08-19T00:53:56.263Z,39.10
2022-08-19T00:56:23.571Z,39.20
2022-08-19T00:58:50.942Z,39.10
2022-08-19T01:01:17.944Z,38.70
2022-08-19T01:03:58.248Z,38.70
2022-08-19T01:06:26.529Z,38.40
2022-08-19T01:08:53.584Z,38.50
2022-08-19T01:11:20.575Z,38.60
2022-08-19T01:13:49.938Z,38.90
2022-08-19T01:16:19.483Z,38.80
2022-08-19T01:18:46.793Z,38.70
2022-08-19T01:21:19.576Z,38.60
2022-08-19T01:23:46.528Z,38.70
2022-08-19T01:26:15.836Z,38.70
2022-08-19T01:28:44.575Z,39.20
2022-08-19T01:31:26.787Z,39.60
2022-08-19T01:33:56.812Z,39.90
2022-08-19T01:36:35.315Z,40.40
2022-08-19T01:39:04.622Z,40.50
2022-08-19T01:41:31.526Z,40.60
2022-08-19T01:44:13.403Z,40.80
2022-08-19T01:46:45.363Z,40.90
2022-08-19T01:49:12.207Z,40.50
2022-08-19T01:51:40.143Z,40.80
2022-08-19T01:54:08.122Z,40.90
2022-08-19T01:56:36.480Z,41.00
2022-08-19T01:59:05.694Z,41.10
2022-08-19T02:01:33.728Z,41.30
2022-08-19T02:04:01.947Z,41.40
2022-08-19T02:06:29.490Z,41.50
2022-08-19T02:08:57.470Z,41.60
2022-08-19T02:11:27.565Z,41.40
2022-08-19T02:13:55.348Z,41.50
2022-08-19T02:16:22.190Z,41.60
2022-08-19T02:18:51.945Z,41.80
2022-08-19T02:21:19.770Z,41.90
2022-08-19T02:23:46.719Z,42.00
2022-08-19T02:26:14.186Z,42.00
2022-08-19T02:28:42.467Z,42.00
2022-08-19T02:31:10.692Z,42.00
2022-08-19T02:33:37.744Z,42.10
2022-08-19T02:36:05.741Z,42.20
2022-08-19T02:38:33.559Z,42.10
2022-08-19T02:41:01.848Z,42.30
2022-08-19T02:43:33.661Z,42.30
2022-08-19T02:46:02.325Z,42.40
2022-08-19T02:48:29.248Z,42.40
2022-08-19T02:50:56.556Z,42.50
2022-08-19T02:53:24.465Z,42.60
2022-08-19T02:55:52.027Z,42.50
2022-08-19T02:58:19.858Z,42.60
2022-08-19T03:00:49.521Z,42.60
2022-08-19T03:03:16.919Z,42.60
2022-08-19T03:05:47.913Z,42.50
2022-08-19T03:08:22.855Z,42.50
2022-08-19T03:10:49.846Z,42.50
2022-08-19T03:13:18.304Z,42.50
2022-08-19T03:15:47.976Z,42.40
2022-08-19T03:18:15.721Z,42.40
2022-08-19T03:20:46.118Z,42.40
2022-08-19T03:23:13.826Z,42.30
2022-08-19T03:25:44.497Z,42.30
2022-08-19T03:28:12.989Z,42.30
2022-08-19T03:30:43.553Z,42.30
2022-08-19T03:33:11.860Z,42.30
2022-08-19T03:35:46.320Z,42.50
2022-08-19T03:38:13.213Z,42.50
2022-08-19T03:40:40.027Z,42.50
2022-08-19T03:43:07.169Z,42.60
2022-08-19T03:45:34.015Z,42.40
2022-08-19T03:48:00.902Z,42.40
2022-08-19T03:50:27.765Z,42.40
2022-08-19T03:52:54.732Z,42.40
2022-08-19T03:55:21.545Z,42.30
2022-08-19T03:57:49.453Z,42.30
2022-08-19T04:00:16.639Z,42.30
2022-08-19T04:02:58.204Z,42.10
2022-08-19T04:05:29.706Z,42.10
2022-08-19T04:08:00.207Z,42.10
2022-08-19T04:10:28.801Z,42.30
2022-08-19T04:12:55.710Z,42.40
2022-08-19T04:15:22.649Z,42.40
2022-08-19T04:17:49.444Z,42.40
2022-08-19T04:20:16.352Z,42.40
2022-08-19T04:22:43.156Z,42.50
2022-08-19T04:25:10.385Z,42.50
2022-08-19T04:27:37.248Z,42.40
2022-08-19T04:30:04.615Z,42.30
2022-08-19T04:32:33.038Z,42.40
2022-08-19T04:35:15.765Z,42.40
2022-08-19T04:37:44.663Z,42.40
2022-08-19T04:40:30.832Z,42.40
2022-08-19T04:42:57.696Z,42.40
2022-08-19T04:45:25.448Z,42.60
2022-08-19T04:47:58.826Z,42.80
2022-08-19T04:50:44.664Z,42.70
2022-08-19T04:53:11.744Z,42.70
2022-08-19T04:55:42.950Z,42.90
2022-08-19T04:58:09.879Z,42.90
2022-08-19T05:00:38.927Z,42.70
2022-08-19T05:03:07.776Z,42.80
2022-08-19T05:05:44.833Z,42.80
2022-08-19T05:08:13.364Z,42.60
2022-08-19T05:10:42.149Z,42.30
2022-08-19T05:13:10.417Z,42.30
2022-08-19T05:15:37.455Z,42.50
2022-08-19T05:18:23.690Z,42.90
2022-08-19T05:21:08.899Z,43.10
2022-08-19T05:23:35.809Z,43.40
2022-08-19T05:26:02.677Z,43.50
2022-08-19T05:28:29.560Z,43.60
2022-08-19T05:30:58.499Z,43.60
2022-08-19T05:33:28.772Z,43.80
2022-08-19T05:35:57.148Z,44.00
2022-08-19T05:38:24.246Z,44.10
2022-08-19T05:40:51.132Z,43.90
2022-08-19T05:43:18.000Z,44.00
2022-08-19T05:45:45.191Z,44.20
2022-08-19T05:48:12.547Z,44.20
2022-08-19T05:50:40.924Z,44.40
2022-08-19T05:53:09.886Z,44.40
2022-08-19T05:55:39.174Z,44.40
2022-08-19T05:58:08.692Z,44.40
2022-08-19T06:00:36.965Z,44.50
2022-08-19T06:03:09.640Z,44.50
2022-08-19T06:05:51.516Z,44.80
2022-08-19T06:08:19.535Z,45.10
2022-08-19T06:10:46.556Z,45.30
2022-08-19T06:13:13.473Z,45.40
2022-08-19T06:15:42.521Z,45.50
2022-08-19T06:18:09.353Z,45.70
2022-08-19T06:20:54.910Z,45.60
2022-08-19T06:23:24.411Z,45.80
2022-08-19T06:25:51.402Z,46.00
2022-08-19T06:28:18.472Z,46.50
2022-08-19T06:30:45.690Z,46.60
2022-08-19T06:33:12.611Z,46.80
2022-08-19T06:35:40.386Z,46.90
2022-08-19T06:38:07.231Z,46.90
2022-08-19T06:40:34.281Z,46.80
2022-08-19T06:43:03.622Z,46.80
2022-08-19T06:45:34.574Z,47.00
2022-08-19T06:48:02.557Z,47.10
2022-08-19T06:50:30.144Z,47.00
2022-08-19T06:52:57.009Z,46.80
2022-08-19T06:55:24.992Z,46.80
2022-08-19T06:57:54.623Z,46.60
2022-08-19T07:00:21.642Z,46.50
2022-08-19T07:02:54.633Z,46.20
2022-08-19T07:05:26.174Z,46.10
2022-08-19T07:07:53.069Z,45.70
2022-08-19T07:10:20.365Z,45.50
2022-08-19T07:12:48.641Z,45.50
2022-08-19T07:15:16.757Z,45.40
2022-08-19T07:17:45.754Z,45.20
2022-08-19T07:20:16.297Z,45.20
2022-08-19T07:22:46.590Z,45.20
2022-08-19T07:25:14.349Z,45.30
2022-08-19T07:27:41.192Z,45.30
2022-08-19T07:30:11.629Z,45.40
2022-08-19T07:32:39.253Z,45.50
2022-08-19T07:35:07.253Z,45.50
2022-08-19T07:37:36.212Z,45.60
2022-08-19T07:40:03.503Z,45.60
2022-08-19T07:42:31.059Z,45.80
2022-08-19T07:44:58.378Z,46.10
2022-08-19T07:47:58.424Z,46.10
2022-08-19T07:50:12.711Z,46.30
2022-08-19T07:52:40.696Z,46.20
2022-08-19T07:55:40.674Z,46.20
2022-08-19T07:57:56.112Z,46.30
2022-08-19T08:00:24.291Z,46.40
2022-08-19T08:02:52.123Z,46.40
2022-08-19T08:05:43.419Z,46.40
2022-08-19T08:08:30.041Z,46.30
2022-08-19T08:10:57.458Z,46.30
2022-08-19T08:13:25.284Z,46.10
2022-08-19T08:15:54.751Z,45.90
2022-08-19T08:18:23.106Z,45.90
2022-08-19T08:20:55.729Z,46.00
2022-08-19T08:23:30.330Z,46.00
2022-08-19T08:25:58.496Z,45.90
2022-08-19T08:28:26.295Z,46.00
2022-08-19T08:30:57.072Z,46.10
2022-08-19T08:33:30.197Z,46.10
2022-08-19T08:36:01.916Z,46.10
2022-08-19T08:38:30.864Z,46.10
2022-08-19T08:41:28.856Z,46.20
2022-08-19T08:43:56.516Z,46.20
2022-08-19T08:46:42.156Z,46.10
2022-08-19T08:49:27.502Z,46.10
2022-08-19T08:52:06.038Z,45.90
2022-08-19T08:54:38.792Z,45.60
2022-08-19T08:57:08.294Z,45.60
2022-08-19T08:59:37.694Z,45.30
2022-08-19T09:02:04.657Z,45.00
2022-08-19T09:04:31.500Z,45.00
2022-08-19T09:07:27.083Z,44.90
2022-08-19T09:10:02.688Z,45.10
2022-08-19T09:12:40.073Z,45.30
2022-08-19T09:15:11.579Z,45.50
2022-08-19T09:17:39.782Z,45.70
2022-08-19T09:20:15.525Z,45.60
2022-08-19T09:22:45.872Z,45.70
2022-08-19T09:25:16.490Z,45.70
2022-08-19T09:27:43.850Z,45.60
2022-08-19T09:30:19.395Z,45.50
2022-08-19T09:32:46.702Z,45.40
2022-08-19T09:35:14.046Z,45.30
2022-08-19T09:37:41.502Z,45.20
2022-08-19T09:40:11.978Z,45.00
2022-08-19T09:42:39.169Z,45.00
2022-08-19T09:45:18.385Z,45.00
2022-08-19T09:47:45.264Z,45.00
2022-08-19T09:50:16.473Z,45.10
2022-08-19T09:52:55.734Z,45.10
2022-08-19T09:55:32.062Z,45.10
2022-08-19T09:58:00.544Z,45.00
2022-08-19T10:00:27.913Z,44.90
2022-08-19T10:02:54.755Z,44.90
2022-08-19T10:05:42.326Z,44.70
2022-08-19T10:08:13.713Z,44.70
2022-08-19T10:10:46.599Z,44.70
2022-08-19T10:13:15.040Z,44.70
2022-08-19T10:15:47.156Z,44.70
2022-08-19T10:18:17.816Z,44.70
2022-08-19T10:20:46.542Z,44.70
2022-08-19T10:23:19.837Z,44.90
2022-08-19T10:25:46.884Z,44.90
2022-08-19T10:28:15.161Z,45.00
2022-08-19T10:30:42.502Z,45.00
2022-08-19T10:33:11.034Z,44.90
2022-08-19T10:35:56.547Z,45.00
2022-08-19T10:38:31.394Z,44.80
2022-08-19T10:40:59.566Z,44.80
2022-08-19T10:43:26.453Z,44.80
2022-08-19T10:45:56.113Z,44.90
2022-08-19T10:48:22.962Z,45.00
2022-08-19T10:51:08.526Z,45.10
2022-08-19T10:53:35.495Z,45.30
2022-08-19T10:56:21.784Z,45.20
2022-08-19T10:58:50.096Z,45.10
2022-08-19T11:01:17.042Z,45.00
2022-08-19T11:03:46.547Z,44.90
2022-08-19T11:06:13.474Z,44.90
2022-08-19T11:08:40.413Z,45.00
2022-08-19T11:11:07.986Z,45.00
2022-08-19T11:13:38.279Z,45.10
2022-08-19T11:16:08.205Z,44.90
2022-08-19T11:18:39.632Z,44.60
2022-08-19T11:21:08.168Z,44.50
2022-08-19T11:23:35.094Z,44.30
2022-08-19T11:26:02.517Z,44.10
2022-08-19T11:28:29.775Z,44.10
2022-08-19T11:30:56.623Z,44.10
2022-08-19T11:33:23.757Z,44.20
2022-08-19T11:35:50.595Z,44.50
2022-08-19T11:38:17.538Z,44.50
2022-08-19T11:40:44.576Z,44.80
2022-08-19T11:43:11.430Z,45.30
2022-08-19T11:45:38.269Z,45.60
2022-08-19T11:48:05.330Z,45.80
2022-08-19T11:50:32.209Z,46.10
2022-08-19T11:52:59.036Z,46.50
2022-08-19T11:55:25.999Z,46.70
2022-08-19T11:57:52.972Z,47.10
2022-08-19T12:00:20.040Z,47.50
2022-08-19T12:02:46.918Z,47.70
2022-08-19T12:05:13.872Z,48.10
2022-08-19T12:07:41.911Z,48.20
2022-08-19T12:10:09.104Z,48.50
2022-08-19T12:12:41.499Z,48.70
2022-08-19T12:15:08.914Z,48.60
2022-08-19T12:17:35.748Z,48.70
2022-08-19T12:20:02.764Z,48.80
2022-08-19T12:22:30.098Z,48.80
2022-08-19T12:24:57.110Z,49.20
2022-08-19T12:27:35.663Z,49.60
2022-08-19T12:30:08.514Z,50.10
2022-08-19T12:32:35.617Z,50.90
2022-08-19T12:35:02.520Z,51.40
2022-08-19T12:37:29.559Z,51.80
2022-08-19T12:39:56.564Z,52.30
2022-08-19T12:42:23.759Z,52.80
2022-08-19T12:44:51.736Z,53.20
2022-08-19T12:47:19.618Z,53.50
2022-08-19T12:49:53.458Z,53.80
2022-08-19T12:52:23.137Z,53.70
2022-08-19T12:54:54.044Z,53.90
2022-08-19T12:57:23.734Z,54.10
2022-08-19T12:59:58.448Z,54.20
2022-08-19T13:02:25.326Z,54.50
2022-08-19T13:04:52.149Z,54.60
2022-08-19T13:07:19.071Z,54.60
2022-08-19T13:09:45.951Z,54.30
2022-08-19T13:12:14.491Z,53.90
2022-08-19T13:14:42.940Z,53.40
2022-08-19T13:17:09.840Z,52.90
2022-08-19T13:19:37.967Z,52.40
2022-08-19T13:22:04.934Z,51.90
2022-08-19T13:24:42.902Z,51.50
2022-08-19T13:27:13.336Z,51.10
2022-08-19T13:29:59.765Z,50.90
2022-08-19T13:32:44.988Z,50.30
2022-08-19T13:35:16.240Z,49.90
2022-08-19T13:37:44.107Z,49.60
2022-08-19T13:40:13.912Z,49.50
2022-08-19T13:42:41.309Z,49.30
2022-08-19T13:45:08.934Z,49.20
2022-08-19T13:47:36.275Z,49.00
2022-08-19T13:50:06.205Z,48.80
2022-08-19T13:52:33.081Z,48.70
2022-08-19T13:54:59.998Z,48.60
2022-08-19T13:57:26.912Z,48.40
2022-08-19T13:59:53.790Z,48.10
2022-08-19T14:02:20.706Z,48.00
2022-08-19T14:04:49.839Z,47.80
2022-08-19T14:07:16.660Z,47.40
2022-08-19T14:09:43.839Z,47.40
2022-08-19T14:12:15.777Z,47.40
2022-08-19T14:14:58.100Z,47.60
2022-08-19T14:17:26.043Z,47.40
2022-08-19T14:20:10.491Z,47.30
2022-08-19T14:22:39.729Z,47.40
2022-08-19T14:25:07.634Z,47.70
2022-08-19T14:27:35.266Z,47.80
2022-08-19T14:30:03.081Z,48.30
2022-08-19T14:32:29.978Z,48.80
2022-08-19T14:34:56.887Z,49.60
2022-08-19T14:37:23.836Z,49.90
2022-08-19T14:39:54.950Z,50.10
2022-08-19T14:42:21.847Z,50.10
2022-08-19T14:44:48.905Z,49.50
2022-08-19T14:47:15.934Z,49.40
2022-08-19T14:49:46.857Z,48.50
2022-08-19T14:52:15.461Z,47.80
2022-08-19T14:54:42.382Z,47.10
2022-08-19T14:57:12.352Z,46.60
2022-08-19T14:59:39.551Z,46.20
2022-08-19T15:02:33.978Z,45.60
2022-08-19T15:04:58.455Z,45.50
2022-08-19T15:07:28.863Z,45.30
2022-08-19T15:09:56.636Z,45.40
2022-08-19T15:12:23.864Z,45.20
2022-08-19T15:14:55.947Z,44.80
2022-08-19T15:17:43.353Z,44.70
2022-08-19T15:20:11.473Z,44.60
2022-08-19T15:22:38.505Z,44.70
2022-08-19T15:25:06.427Z,45.00
2022-08-19T15:27:33.564Z,45.00
2022-08-19T15:30:01.227Z,45.10
2022-08-19T15:32:31.782Z,45.30
2022-08-19T15:34:59.127Z,45.10
2022-08-19T15:37:26.047Z,44.80
2022-08-19T15:39:52.899Z,44.60
2022-08-19T15:42:29.636Z,44.50
2022-08-19T15:45:00.404Z,44.40
2022-08-19T15:47:34.593Z,44.10
2022-08-19T15:50:29.340Z,44.50
2022-08-19T15:52:57.470Z,45.00
2022-08-19T15:55:32.828Z,45.10
2022-08-19T15:58:28.920Z,45.30
2022-08-19T16:01:20.826Z,45.40
2022-08-19T16:04:13.947Z,45.10
2022-08-19T16:06:54.743Z,45.10
2022-08-19T16:09:27.218Z,45.30
2022-08-19T16:12:02.533Z,45.40
2022-08-19T16:14:30.830Z,45.30
2022-08-19T16:16:57.706Z,44.60
2022-08-19T16:19:25.383Z,44.60
2022-08-19T16:21:54.256Z,44.50
2022-08-19T16:24:23.155Z,44.30
2022-08-19T16:26:50.127Z,44.20
2022-08-19T16:29:22.091Z,44.40
2022-08-19T16:32:00.643Z,44.50
2022-08-19T16:34:30.280Z,44.50
2022-08-19T16:36:57.505Z,44.10
2022-08-19T16:39:24.495Z,43.90
2022-08-19T16:41:51.717Z,44.20
2022-08-19T16:44:21.250Z,44.00
2022-08-19T16:46:54.797Z,44.20
2022-08-19T16:49:53.328Z,44.40
2022-08-19T16:52:14.832Z,44.50
2022-08-19T16:54:43.652Z,44.50
2022-08-19T16:57:11.878Z,44.50
2022-08-19T16:59:42.575Z,44.60
2022-08-19T17:02:15.497Z,44.80
2022-08-19T17:04:42.451Z,44.70
2022-08-19T17:07:10.247Z,44.90
2022-08-19T17:09:37.907Z,45.10
2022-08-19T17:12:05.107Z,45.20
2022-08-19T17:14:32.017Z,44.70
2022-08-19T17:16:58.891Z,44.60
2022-08-19T17:19:25.734Z,44.00
2022-08-19T17:21:52.762Z,43.90
2022-08-19T17:24:19.940Z,44.20
2022-08-19T17:26:46.936Z,44.20
2022-08-19T17:29:14.279Z,44.30
2022-08-19T17:31:41.168Z,44.30
2022-08-19T17:34:09.212Z,44.40
2022-08-19T17:36:36.290Z,44.20
2022-08-19T17:39:04.681Z,44.30
2022-08-19T17:41:34.183Z,44.20
2022-08-19T17:44:01.599Z,44.30
2022-08-19T17:46:30.344Z,44.20
2022-08-19T17:48:57.849Z,44.20
2022-08-19T17:51:45.190Z,44.00
2022-08-19T17:54:16.368Z,44.00
2022-08-19T17:56:43.700Z,44.00
2022-08-19T17:59:13.946Z,43.50
2022-08-19T18:01:44.124Z,43.10
2022-08-19T18:04:19.969Z,43.30
2022-08-19T18:06:53.202Z,43.00
2022-08-19T18:09:25.589Z,43.00
2022-08-19T18:11:57.268Z,43.30
2022-08-19T18:14:32.271Z,43.30
2022-08-19T18:17:09.218Z,43.50
2022-08-19T18:19:41.473Z,43.60
2022-08-19T18:22:26.927Z,43.80
2022-08-19T18:24:54.104Z,43.70
2022-08-19T18:27:21.309Z,43.50
2022-08-19T18:29:48.265Z,43.30
2022-08-19T18:32:16.452Z,43.50
2022-08-19T18:34:46.063Z,43.60
2022-08-19T18:37:13.049Z,43.60
2022-08-19T18:39:58.597Z,43.70
2022-08-19T18:42:44.465Z,43.70
2022-08-19T18:45:30.662Z,43.70
2022-08-19T18:48:26.933Z,43.00
2022-08-19T18:50:55.643Z,42.40
2022-08-19T18:53:22.501Z,42.30
2022-08-19T18:55:52.024Z,42.50
2022-08-19T18:58:20.130Z,42.90
2022-08-19T19:00:48.609Z,43.10
2022-08-19T19:03:15.477Z,43.10
2022-08-19T19:05:44.317Z,43.00
2022-08-19T19:08:13.463Z,42.50
2022-08-19T19:10:41.651Z,42.10
2022-08-19T19:13:08.655Z,42.30
2022-08-19T19:15:37.071Z,42.30
2022-08-19T19:18:05.167Z,42.40
2022-08-19T19:20:36.130Z,42.40
2022-08-19T19:23:03.682Z,42.40
2022-08-19T19:25:44.809Z,42.80
2022-08-19T19:28:22.486Z,42.90
2022-08-19T19:30:49.382Z,42.70
2022-08-19T19:33:16.221Z,42.50
2022-08-19T19:35:44.866Z,42.40
2022-08-19T19:38:14.329Z,42.30
2022-08-19T19:40:41.264Z,41.90
2022-08-19T19:43:08.525Z,41.60
2022-08-19T19:45:35.479Z,41.10
2022-08-19T19:48:02.461Z,40.80
2022-08-19T19:50:30.320Z,40.60
2022-08-19T19:52:57.895Z,40.80
2022-08-19T19:55:26.699Z,41.20
2022-08-19T19:57:54.319Z,41.50
2022-08-19T20:00:21.989Z,41.60
2022-08-19T20:02:50.963Z,41.50
2022-08-19T20:05:20.961Z,41.10
2022-08-19T20:08:06.645Z,41.30
2022-08-19T20:10:33.606Z,41.20
2022-08-19T20:13:05.497Z,41.10
2022-08-19T20:15:32.836Z,41.30
2022-08-19T20:18:01.105Z,40.70
2022-08-19T20:20:28.495Z,41.10
2022-08-19T20:22:55.397Z,41.10
2022-08-19T20:25:22.599Z,41.40
2022-08-19T20:27:49.842Z,41.50
2022-08-19T20:30:19.517Z,41.50
2022-08-19T20:32:47.312Z,41.70
2022-08-19T20:35:15.987Z,41.50
2022-08-19T20:37:42.917Z,40.70
2022-08-19T20:40:10.465Z,40.70
2022-08-19T20:42:40.541Z,41.10
2022-08-19T20:45:21.543Z,41.50
2022-08-19T20:48:02.824Z,41.40
2022-08-19T20:50:30.855Z,41.40
2022-08-19T20:52:58.253Z,41.80
2022-08-19T20:55:26.628Z,41.90
2022-08-19T20:57:53.648Z,42.00
2022-08-19T21:00:25.003Z,42.30
2022-08-19T21:02:51.842Z,42.20
2022-08-19T21:05:18.799Z,42.10
2022-08-19T21:07:46.324Z,41.80
2022-08-19T21:10:13.668Z,42.10
2022-08-19T21:12:42.161Z,42.20
2022-08-19T21:15:09.273Z,42.40
2022-08-19T21:17:36.161Z,42.50
2022-08-19T21:20:04.109Z,42.00
2022-08-19T21:22:31.261Z,42.30
2022-08-19T21:24:58.133Z,41.60
2022-08-19T21:27:25.032Z,41.90
2022-08-19T21:29:51.893Z,41.90
2022-08-19T21:32:19.800Z,42.00
2022-08-19T21:34:47.131Z,41.80
2022-08-19T21:37:25.362Z,42.00
2022-08-19T21:39:53.665Z,42.00
2022-08-19T21:42:21.201Z,41.80
2022-08-19T21:44:48.084Z,42.00
2022-08-19T21:47:15.016Z,42.10
2022-08-19T21:49:41.968Z,42.20
2022-08-19T21:52:09.309Z,42.20
2022-08-19T21:54:38.002Z,41.90
2022-08-19T21:57:10.285Z,42.10
2022-08-19T21:59:43.846Z,42.20
2022-08-19T22:02:21.064Z,42.00
2022-08-19T22:04:52.015Z,41.60
2022-08-19T22:07:19.794Z,41.10
2022-08-19T22:09:47.738Z,41.10
2022-08-19T22:12:25.503Z,41.30
2022-08-19T22:14:53.313Z,40.50
2022-08-19T22:17:20.295Z,40.70
2022-08-19T22:19:47.266Z,40.90
2022-08-19T22:22:19.543Z,40.70
2022-08-19T22:24:46.393Z,40.70
2022-08-19T22:27:13.386Z,40.90
2022-08-19T22:29:40.250Z,40.70
2022-08-19T22:32:27.052Z,40.90
2022-08-19T22:34:57.106Z,41.30
2022-08-19T22:37:24.031Z,41.60
2022-08-19T22:39:50.983Z,41.60
2022-08-19T22:42:19.137Z,41.90
2022-08-19T22:44:46.476Z,42.20
2022-08-19T22:47:13.433Z,42.10
2022-08-19T22:49:40.797Z,42.20
2022-08-19T22:52:19.942Z,42.10
2022-08-19T22:54:59.286Z,42.10
2022-08-19T22:57:27.671Z,42.10
2022-08-19T22:59:55.001Z,42.00
2022-08-19T23:02:29.631Z,42.20
2022-08-19T23:04:56.457Z,42.10
2022-08-19T23:07:23.589Z,42.30
2022-08-19T23:09:50.862Z,42.10
2022-08-19T23:12:26.320Z,41.90
2022-08-19T23:14:53.220Z,41.60
2022-08-19T23:17:20.472Z,41.20
2022-08-19T23:19:47.551Z,41.50
2022-08-19T23:22:18.157Z,41.50
2022-08-19T23:24:45.081Z,41.70
2022-08-19T23:27:30.355Z,41.60
2022-08-19T23:30:15.653Z,41.90
2022-08-19T23:32:42.535Z,42.20
2022-08-19T23:35:09.368Z,41.90
2022-08-19T23:37:37.527Z,41.80
2022-08-19T23:40:06.042Z,41.80
2022-08-19T23:42:33.229Z,42.10
2022-08-19T23:45:01.430Z,42.10
2022-08-19T23:47:28.291Z,42.30
2022-08-19T23:49:56.580Z,42.20
2022-08-19T23:52:23.490Z,41.80
2022-08-19T23:54:50.353Z,41.50
2022-08-19T23:57:17.190Z,41.60
2022-08-19T23:59:45.782Z,41.50
